Airport Name : Campo Grande

Other Name : Campo Grande

ICAO : SBCG

IATA : CGR

FAA :

Latitude : -20.468667

Longitude : -54.6725

Country : Brazil

Local Date and Time : 4/26/2018

 

TAF (Terminal Aerodrome Forecast)

 

METAR (METeorological Aerodrome Report)

SBCG 260400Z 11007KT CAVOK 23/15 Q1017

SBCG 260300Z 10009KT CAVOK 24/15 Q1018

SBCG 260200Z 11008KT CAVOK 24/15 Q1018

SBCG 260100Z 11006KT CAVOK 25/15 Q1018